| time (UTC) | temp F | wind direction | speed MPH | gust MPH | rain 1hr in | rain 24hr in | rain mn in | humidity % | barometer mb |
| 20260507165818 | 50 | 360 | 0.0 | 4.0 | 0.04 | 0.11 | 0.11 | 81 | 1013.4 |
| 20260507165323 | 50 | 360 | 0.0 | 12.0 | 0.04 | 0.11 | 0.11 | 80 | 1013.7 |
| 20260507164828 | 50 | 360 | 2.0 | 12.0 | 0.04 | 0.11 | 0.11 | 80 | 1013.5 |
| 20260507164331 | 50 | 360 | 0.0 | 6.0 | 0.03 | 0.10 | 0.10 | 81 | 1013.6 |
| 20260507163829 | 49 | 360 | 1.0 | 6.0 | 0.03 | 0.10 | 0.10 | 81 | 1013.9 |
| 20260507163333 | 49 | 360 | 1.0 | 5.0 | 0.03 | 0.10 | 0.10 | 81 | 1014.0 |
| 20260507162836 | 49 | 360 | 0.0 | 2.0 | 0.02 | 0.09 | 0.09 | 82 | 1014.2 |
| 20260507162318 | 49 | 360 | 0.0 | 2.0 | 0.02 | 0.09 | 0.09 | 85 | 1014.2 |
| 20260507161824 | 49 | 360 | 0.0 | 0.0 | 0.01 | 0.08 | 0.08 | 85 | 1014.1 |
| 20260507161350 | 49 | 360 | 0.0 | 2.0 | 0.00 | 0.07 | 0.07 | 84 | 1013.9 |
| 20260507160817 | 49 | 360 | 0.0 | 2.0 | 0.00 | 0.07 | 0.07 | 83 | 1013.9 |
| 20260507160322 | 49 | 360 | 0.0 | 2.0 | 0.03 | 0.07 | 0.07 | 83 | 1013.5 |
| 20260507155829 | 48 | 360 | 0.0 | 4.0 | 0.05 | 0.07 | 0.07 | 85 | 1013.1 |
| 20260507155335 | 48 | 360 | 1.0 | 4.0 | 0.06 | 0.07 | 0.07 | 84 | 1013.3 |
| 20260507154821 | 48 | 360 | 0.0 | 1.0 | 0.06 | 0.07 | 0.07 | 85 | 1013.4 |
| 20260507154328 | 47 | 360 | 0.0 | 3.0 | 0.06 | 0.07 | 0.07 | 85 | 1013.3 |
| 20260507153836 | 47 | 360 | 0.0 | 3.0 | 0.07 | 0.07 | 0.07 | 84 | 1013.3 |
| 20260507153321 | 47 | 360 | 0.0 | 2.0 | 0.07 | 0.07 | 0.07 | 84 | 1013.2 |
| 20260507152828 | 47 | 360 | 0.0 | 4.0 | 0.07 | 0.07 | 0.07 | 85 | 1013.2 |
| 20260507152350 | 47 | 360 | 2.0 | 4.0 | 0.07 | 0.07 | 0.07 | 85 | 1013.2 |
| 20260507151832 | 47 | 360 | 0.0 | 3.0 | 0.07 | 0.07 | 0.07 | 83 | 1013.4 |
| 20260507151357 | 47 | 360 | 0.0 | 4.0 | 0.07 | 0.07 | 0.07 | 82 | 1013.8 |
| 20260507150838 | 48 | 360 | 1.0 | 5.0 | 0.06 | 0.06 | 0.06 | 80 | 1014.3 |
| 20260507150341 | 48 | 360 | 1.0 | 5.0 | 0.04 | 0.04 | 0.04 | 77 | 1015.0 |
| 20260507145818 | 49 | 360 | 1.0 | 5.0 | 0.02 | 0.02 | 0.02 | 74 | 1015.0 |
| 20260507145343 | 49 | 360 | 2.0 | 8.0 | 0.01 | 0.01 | 0.01 | 72 | 1014.8 |
| 20260507144818 | 50 | 360 | 3.0 | 8.0 | 0.01 | 0.01 | 0.01 | 67 | 1014.7 |
| 20260507144338 | 51 | 360 | 1.0 | 4.0 | 0.01 | 0.01 | 0.01 | 69 | 1014.4 |
| 20260507143821 | 52 | 360 | 1.0 | 4.0 | 0.00 | 0.00 | 0.00 | 66 | 1014.7 |
| 20260507143325 | 52 | 360 | 1.0 | 10.0 | 0.00 | 0.00 | 0.00 | 61 | 1014.4 |
| 20260507142828 | 53 | 360 | 3.0 | 10.0 | 0.00 | 0.00 | 0.00 | 57 | 1014.3 |
| 20260507142332 | 53 | 223 | 1.0 | 5.0 | 0.00 | 0.00 | 0.00 | 53 | 1014.4 |
| 20260507141837 | 53 | 290 | 1.0 | 5.0 | 0.00 | 0.00 | 0.00 | 52 | 1014.3 |
| 20260507141322 | 53 | 297 | 2.0 | 5.0 | 0.00 | 0.00 | 0.00 | 51 | 1013.8 |
| 20260507140829 | 53 | 15 | 0.0 | 3.0 | 0.00 | 0.00 | 0.00 | 52 | 1013.7 |
| 20260507140336 | 54 | 325 | 0.0 | 5.0 | 0.00 | 0.00 | 0.00 | 50 | 1013.5 |
| 20260507135823 | 54 | 254 | 1.0 | 5.0 | 0.00 | 0.00 | 0.00 | 53 | 1013.4 |
| 20260507135330 | 53 | 258 | 1.0 | 4.0 | 0.00 | 0.00 | 0.00 | 52 | 1013.4 |
| 20260507134835 | 53 | 93 | 1.0 | 3.0 | 0.00 | 0.00 | 0.00 | 51 | 1013.4 |
| 20260507134322 | 53 | 176 | 0.0 | 3.0 | 0.00 | 0.00 | 0.00 | 55 | 1013.4 |
| 20260507133828 | 52 | 360 | 1.0 | 3.0 | 0.00 | 0.00 | 0.00 | 54 | 1013.4 |
| 20260507133328 | 52 | 360 | 0.0 | 3.0 | 0.00 | 0.00 | 0.00 | 54 | 1013.4 |
| 20260507132832 | 52 | 360 | 1.0 | 3.0 | 0.00 | 0.00 | 0.00 | 57 | 1013.4 |
| 20260507132336 | 51 | 360 | 0.0 | 3.0 | 0.00 | 0.00 | 0.00 | 59 | 1013.7 |
| 20260507131819 | 50 | 360 | 1.0 | 4.0 | 0.00 | 0.00 | 0.00 | 58 | 1013.7 |
| 20260507131343 | 49 | 360 | 0.0 | 4.0 | 0.00 | 0.00 | 0.00 | 62 | 1013.8 |
| 20260507130824 | 48 | 360 | 1.0 | 3.0 | 0.00 | 0.00 | 0.00 | 62 | 1014.0 |
| 20260507130326 | 47 | 360 | 1.0 | 3.0 | 0.00 | 0.00 | 0.00 | 67 | 1014.1 |
| 20260507125829 | 46 | 360 | 0.0 | 2.0 | 0.00 | 0.00 | 0.00 | 70 | 1014.1 |
| 20260507125333 | 45 | 360 | 0.0 | 3.0 | 0.00 | 0.00 | 0.00 | 70 | 1014.2 |
| 20260507124835 | 44 | 360 | 1.0 | 3.0 | 0.00 | 0.00 | 0.00 | 72 | 1014.2 |
| 20260507124318 | 43 | 360 | 0.0 | 1.0 | 0.00 | 0.00 | 0.00 | 75 | 1014.2 |
| 20260507123822 | 42 | 360 | 0.0 | 0.0 | 0.00 | 0.00 | 0.00 | 78 | 1014.4 |
| 20260507123323 | 42 | 360 | 0.0 | 2.0 | 0.00 | 0.00 | 0.00 | 79 | 1014.4 |
| 20260507122823 | 41 | 360 | 0.0 | 5.0 | 0.00 | 0.00 | 0.00 | 81 | 1014.3 |
| 20260507122322 | 40 | 360 | 0.0 | 5.0 | 0.00 | 0.00 | 0.00 | 83 | 1014.3 |
| 20260507121829 | 39 | 360 | 0.0 | 3.0 | 0.00 | 0.00 | 0.00 | 87 | 1014.2 |
| 20260507121333 | 38 | 360 | 0.0 | 2.0 | 0.00 | 0.00 | 0.00 | 89 | 1014.0 |
| 20260507120818 | 37 | 360 | 0.0 | 1.0 | 0.00 | 0.00 | 0.00 | 89 | 1014.0 |
| 20260507120323 | 36 | 360 | 0.0 | 2.0 | 0.00 | 0.00 | 0.00 | 89 | 1014.3 |
| 20260507115852 | 36 | 360 | 0.0 | 2.0 | 0.00 | 0.00 | 0.00 | 89 | 1014.1 |
| 20260507115338 | 35 | 360 | 0.0 | 2.0 | 0.00 | 0.00 | 0.00 | 89 | 1014.4 |
| 20260507114826 | 34 | 360 | 0.0 | 1.0 | 0.00 | 0.00 | 0.00 | 89 | 1014.4 |
| 20260507114331 | 34 | 360 | 0.0 | 2.0 | 0.00 | 0.00 | 0.00 | 89 | 1014.5 |
| 20260507113817 | 33 | 360 | 0.0 | 2.0 | 0.00 | 0.00 | 0.00 | 89 | 1014.4 |
| 20260507113324 | 33 | 360 | 0.0 | 1.0 | 0.00 | 0.00 | 0.00 | 89 | 1014.4 |
| 20260507112829 | 33 | 360 | 0.0 | 2.0 | 0.00 | 0.00 | 0.00 | 89 | 1014.4 |
| 20260507112317 | 32 | 360 | 1.0 | 2.0 | 0.00 | 0.00 | 0.00 | 89 | 1014.4 |
| 20260507111820 | 32 | 360 | 0.0 | 1.0 | 0.00 | 0.00 | 0.00 | 89 | 1014.3 |
| 20260507111324 | 32 | 360 | 0.0 | 1.0 | 0.00 | 0.00 | 0.00 | 89 | 1014.3 |
| 20260507110845 | 32 | 360 | 0.0 | 1.0 | 0.00 | 0.00 | 0.00 | 89 | 1014.3 |
| 20260507110327 | 32 | 360 | 0.0 | 0.0 | 0.00 | 0.00 | 0.00 | 89 | 1014.4 |
| 20260507105831 | 32 | 360 | 0.0 | 0.0 | 0.00 | 0.00 | 0.00 | 89 | 1014.4 |
| 20260507105354 | 32 | 360 | 0.0 | 0.0 | 0.00 | 0.00 | 0.00 | 88 | 1014.4 |
| 20260507104837 | 32 | 360 | 0.0 | 0.0 | 0.00 | 0.00 | 0.00 | 88 | 1014.4 |
| 20260507104319 | 32 | 360 | 0.0 | 0.0 | 0.00 | 0.00 | 0.00 | 88 | 1014.4 |
| 20260507103842 | 32 | 360 | 0.0 | 0.0 | 0.00 | 0.00 | 0.00 | 88 | 1014.3 |
| 20260507103323 | 32 | 360 | 0.0 | 0.0 | 0.00 | 0.00 | 0.00 | 88 | 1014.4 |
| 20260507102825 | 32 | 360 | 0.0 | 0.0 | 0.00 | 0.00 | 0.00 | 88 | 1014.5 |
| 20260507102350 | 32 | 360 | 0.0 | 0.0 | 0.00 | 0.00 | 0.00 | 89 | 1014.5 |
| 20260507101831 | 32 | 360 | 0.0 | 0.0 | 0.00 | 0.00 | 0.00 | 88 | 1014.6 |
| 20260507101319 | 32 | 360 | 0.0 | 0.0 | 0.00 | 0.00 | 0.00 | 88 | 1014.6 |
| 20260507100849 | 32 | 360 | 0.0 | 0.0 | 0.00 | 0.00 | 0.00 | 88 | 1014.7 |
| 20260507100332 | 32 | 360 | 0.0 | 0.0 | 0.00 | 0.00 | 0.00 | 88 | 1014.8 |
| 20260507095819 | 32 | 360 | 0.0 | 0.0 | 0.00 | 0.00 | 0.00 | 88 | 1014.7 |
| 20260507095326 | 32 | 360 | 0.0 | 0.0 | 0.00 | 0.00 | 0.00 | 88 | 1014.8 |
| 20260507094830 | 32 | 360 | 0.0 | 0.0 | 0.00 | 0.00 | 0.00 | 88 | 1014.7 |
| 20260507094337 | 33 | 360 | 0.0 | 0.0 | 0.00 | 0.00 | 0.00 | 88 | 1014.8 |
| 20260507093845 | 33 | 360 | 0.0 | 0.0 | 0.00 | 0.00 | 0.00 | 88 | 1014.8 |
| 20260507093330 | 33 | 360 | 0.0 | 0.0 | 0.00 | 0.00 | 0.00 | 88 | 1014.9 |
| 20260507092836 | 33 | 360 | 0.0 | 0.0 | 0.00 | 0.00 | 0.00 | 88 | 1014.9 |
| 20260507092324 | 33 | 360 | 0.0 | 1.0 | 0.00 | 0.00 | 0.00 | 88 | 1014.8 |
| 20260507091825 | 33 | 360 | 0.0 | 1.0 | 0.00 | 0.00 | 0.00 | 88 | 1014.8 |
| 20260507091322 | 33 | 360 | 0.0 | 0.0 | 0.00 | 0.00 | 0.00 | 88 | 1014.9 |
| 20260507090824 | 33 | 360 | 0.0 | 0.0 | 0.00 | 0.00 | 0.00 | 88 | 1014.9 |
| 20260507090322 | 33 | 360 | 0.0 | 1.0 | 0.00 | 0.00 | 0.00 | 88 | 1015.0 |
| 20260507085822 | 33 | 360 | 0.0 | 1.0 | 0.00 | 0.00 | 0.00 | 88 | 1015.0 |
| 20260507085326 | 33 | 360 | 0.0 | 0.0 | 0.00 | 0.00 | 0.00 | 88 | 1015.0 |
| 20260507084827 | 33 | 360 | 0.0 | 0.0 | 0.00 | 0.00 | 0.00 | 88 | 1015.2 |
| 20260507084331 | 33 | 360 | 0.0 | 0.0 | 0.00 | 0.00 | 0.00 | 88 | 1015.2 |
| 20260507083834 | 33 | 360 | 0.0 | 0.0 | 0.00 | 0.00 | 0.00 | 88 | 1015.2 |
| 20260507083317 | 33 | 360 | 0.0 | 0.0 | 0.00 | 0.00 | 0.00 | 88 | 1015.3 |
| 20260507082821 | 33 | 360 | 0.0 | 0.0 | 0.00 | 0.00 | 0.00 | 88 | 1015.2 |
| 20260507082345 | 33 | 360 | 0.0 | 1.0 | 0.00 | 0.00 | 0.00 | 88 | 1015.2 |
| 20260507081830 | 34 | 360 | 0.0 | 1.0 | 0.00 | 0.00 | 0.00 | 88 | 1015.3 |
| 20260507081318 | 34 | 360 | 0.0 | 0.0 | 0.00 | 0.00 | 0.00 | 88 | 1015.3 |
| 20260507080845 | 34 | 360 | 0.0 | 0.0 | 0.00 | 0.00 | 0.00 | 88 | 1015.3 |
| 20260507080328 | 34 | 360 | 0.0 | 0.0 | 0.00 | 0.00 | 0.00 | 87 | 1015.4 |
| 20260507075834 | 34 | 360 | 0.0 | 0.0 | 0.00 | 0.00 | 0.00 | 88 | 1015.4 |
| 20260507075321 | 34 | 360 | 0.0 | 0.0 | 0.00 | 0.00 | 0.00 | 88 | 1015.5 |
| 20260507074847 | 34 | 360 | 0.0 | 1.0 | 0.00 | 0.00 | 0.00 | 88 | 1015.6 |
| 20260507074333 | 34 | 360 | 0.0 | 1.0 | 0.00 | 0.00 | 0.00 | 87 | 1015.5 |
| 20260507073819 | 34 | 360 | 0.0 | 1.0 | 0.00 | 0.00 | 0.00 | 87 | 1015.5 |
| 20260507073326 | 34 | 360 | 0.0 | 1.0 | 0.00 | 0.00 | 0.00 | 87 | 1015.6 |
| 20260507072833 | 34 | 360 | 0.0 | 0.0 | 0.00 | 0.00 | 0.00 | 87 | 1015.7 |
| 20260507072319 | 34 | 360 | 0.0 | 0.0 | 0.00 | 0.00 | 0.00 | 87 | 1015.9 |
| 20260507071822 | 34 | 360 | 0.0 | 0.0 | 0.00 | 0.00 | 0.00 | 87 | 1015.9 |
| 20260507071347 | 35 | 360 | 0.0 | 0.0 | 0.00 | 0.00 | 0.00 | 87 | 1016.0 |
| 20260507070829 | 35 | 360 | 0.0 | 0.0 | 0.00 | 0.00 | 0.00 | 87 | 1015.9 |
| 20260507070332 | 35 | 360 | 0.0 | 0.0 | 0.00 | 0.00 | 0.00 | 87 | 1016.0 |
| 20260507065836 | 35 | 360 | 0.0 | 0.0 | 0.00 | 0.00 | 0.00 | 87 | 1016.0 |
| 20260507065317 | 35 | 360 | 0.0 | 0.0 | 0.00 | 0.00 | 0.00 | 86 | 1016.0 |
| 20260507064816 | 35 | 360 | 0.0 | 0.0 | 0.00 | 0.00 | 0.00 | 86 | 1016.0 |
| 20260507064321 | 35 | 360 | 0.0 | 0.0 | 0.00 | 0.00 | 0.00 | 86 | 1016.0 |
| 20260507063825 | 35 | 360 | 0.0 | 0.0 | 0.00 | 0.00 | 0.00 | 86 | 1016.1 |
| 20260507063330 | 35 | 360 | 0.0 | 0.0 | 0.00 | 0.00 | 0.00 | 86 | 1016.0 |
| 20260507062833 | 35 | 360 | 0.0 | 0.0 | 0.00 | 0.00 | 0.00 | 86 | 1016.0 |
| 20260507062336 | 35 | 360 | 0.0 | 0.0 | 0.00 | 0.00 | 0.00 | 86 | 1016.1 |
| 20260507061820 | 36 | 360 | 0.0 | 0.0 | 0.00 | 0.00 | 0.00 | 86 | 1016.2 |
| 20260507061326 | 36 | 360 | 0.0 | 0.0 | 0.00 | 0.00 | 0.00 | 85 | 1016.1 |
| 20260507060835 | 36 | 360 | 0.0 | 0.0 | 0.00 | 0.00 | 0.00 | 85 | 1016.2 |
| 20260507060322 | 36 | 360 | 0.0 | 0.0 | 0.00 | 0.00 | 0.00 | 85 | 1016.2 |
| 20260507055827 | 36 | 360 | 0.0 | 0.0 | 0.00 | 0.00 | 0.00 | 84 | 1016.2 |
| 20260507055354 | 36 | 360 | 0.0 | 0.0 | 0.00 | 0.00 | 0.00 | 84 | 1016.2 |
| 20260507054819 | 36 | 360 | 0.0 | 0.0 | 0.00 | 0.00 | 0.00 | 84 | 1016.3 |
| 20260507054325 | 36 | 360 | 0.0 | 0.0 | 0.00 | 0.00 | 0.00 | 84 | 1016.3 |
| 20260507053847 | 36 | 360 | 0.0 | 0.0 | 0.00 | 0.00 | 0.00 | 84 | 1016.4 |
| 20260507053332 | 37 | 360 | 0.0 | 0.0 | 0.00 | 0.00 | 0.00 | 84 | 1016.3 |
| 20260507052818 | 37 | 360 | 0.0 | 0.0 | 0.00 | 0.00 | 0.00 | 83 | 1016.4 |
| 20260507052324 | 37 | 360 | 0.0 | 1.0 | 0.00 | 0.00 | 0.00 | 84 | 1016.2 |
| 20260507051828 | 37 | 360 | 0.0 | 1.0 | 0.00 | 0.00 | 0.00 | 83 | 1016.3 |
| 20260507051332 | 37 | 360 | 0.0 | 1.0 | 0.00 | 0.00 | 0.00 | 83 | 1016.3 |
| 20260507050836 | 37 | 360 | 0.0 | 0.0 | 0.00 | 0.00 | 0.00 | 83 | 1016.3 |
| 20260507050317 | 37 | 360 | 0.0 | 0.0 | 0.00 | 0.00 | 0.00 | 82 | 1016.3 |
| 20260507045837 | 37 | 360 | 0.0 | 0.0 | 0.00 | 0.00 | 0.00 | 82 | 1016.3 |
| 20260507045318 | 37 | 360 | 0.0 | 0.0 | 0.00 | 0.00 | 0.00 | 81 | 1016.3 |
| 20260507044822 | 38 | 360 | 0.0 | 0.0 | 0.00 | 0.00 | 0.00 | 81 | 1016.4 |
| 20260507044323 | 38 | 360 | 0.0 | 0.0 | 0.00 | 0.00 | 0.00 | 81 | 1016.3 |
| 20260507043827 | 38 | 360 | 0.0 | 0.0 | 0.00 | 0.00 | 0.00 | 81 | 1016.4 |
| 20260507043331 | 38 | 360 | 0.0 | 1.0 | 0.00 | 0.00 | 0.00 | 80 | 1016.3 |
| 20260507042828 | 38 | 360 | 0.0 | 0.0 | 0.00 | 0.00 | 0.00 | 80 | 1016.3 |
| 20260507042331 | 38 | 360 | 0.0 | 0.0 | 0.00 | 0.00 | 0.00 | 79 | 1016.4 |
| 20260507041834 | 38 | 360 | 0.0 | 0.0 | 0.00 | 0.00 | 0.00 | 78 | 1016.4 |
| 20260507041335 | 39 | 360 | 0.0 | 1.0 | 0.00 | 0.00 | 0.00 | 78 | 1016.4 |
| 20260507040818 | 39 | 360 | 0.0 | 0.0 | 0.00 | 0.00 | 0.00 | 77 | 1016.5 |
| 20260507040338 | 39 | 360 | 0.0 | 1.0 | 0.00 | 0.00 | 0.00 | 76 | 1016.4 |
| 20260507035820 | 39 | 360 | 0.0 | 1.0 | 0.00 | 0.00 | 0.00 | 76 | 1016.3 |
| 20260507035324 | 40 | 360 | 0.0 | 0.0 | 0.00 | 0.00 | 0.00 | 75 | 1016.4 |
| 20260507034826 | 40 | 360 | 0.0 | 0.0 | 0.00 | 0.00 | 0.00 | 75 | 1016.2 |
| 20260507034331 | 40 | 360 | 0.0 | 0.0 | 0.00 | 0.00 | 0.00 | 74 | 1016.1 |
| 20260507033835 | 40 | 360 | 0.0 | 0.0 | 0.00 | 0.00 | 0.00 | 74 | 1016.1 |
| 20260507033338 | 40 | 360 | 0.0 | 0.0 | 0.00 | 0.00 | 0.00 | 73 | 1016.2 |
| 20260507032820 | 41 | 360 | 0.0 | 0.0 | 0.00 | 0.00 | 0.00 | 73 | 1016.3 |
| 20260507032340 | 41 | 360 | 0.0 | 0.0 | 0.00 | 0.00 | 0.00 | 71 | 1016.3 |
| 20260507031824 | 41 | 360 | 0.0 | 0.0 | 0.00 | 0.00 | 0.00 | 70 | 1016.3 |
| 20260507031331 | 41 | 360 | 0.0 | 1.0 | 0.00 | 0.00 | 0.00 | 69 | 1016.2 |
| 20260507030817 | 42 | 360 | 0.0 | 1.0 | 0.00 | 0.00 | 0.00 | 68 | 1016.3 |
| 20260507030324 | 42 | 360 | 0.0 | 0.0 | 0.00 | 0.00 | 0.00 | 67 | 1016.2 |
| 20260507025832 | 43 | 360 | 0.0 | 0.0 | 0.00 | 0.00 | 0.00 | 66 | 1016.3 |
| 20260507025320 | 43 | 360 | 0.0 | 0.0 | 0.00 | 0.00 | 0.00 | 66 | 1016.2 |
| 20260507024827 | 43 | 360 | 0.0 | 0.0 | 0.00 | 0.00 | 0.00 | 64 | 1016.2 |
| 20260507024331 | 43 | 360 | 0.0 | 0.0 | 0.00 | 0.00 | 0.00 | 63 | 1016.1 |
| 20260507023816 | 44 | 360 | 0.0 | 0.0 | 0.00 | 0.00 | 0.00 | 62 | 1016.2 |
| 20260507023325 | 44 | 360 | 0.0 | 0.0 | 0.00 | 0.00 | 0.00 | 60 | 1016.2 |
| 20260507022830 | 45 | 360 | 0.0 | 0.0 | 0.00 | 0.00 | 0.00 | 60 | 1016.1 |
| 20260507022317 | 45 | 360 | 0.0 | 0.0 | 0.00 | 0.00 | 0.00 | 57 | 1016.1 |
| 20260507021823 | 46 | 360 | 0.0 | 0.0 | 0.00 | 0.00 | 0.00 | 56 | 1016.1 |
| 20260507021332 | 46 | 360 | 0.0 | 0.0 | 0.00 | 0.00 | 0.00 | 55 | 1016.0 |
| 20260507020818 | 47 | 360 | 0.0 | 0.0 | 0.00 | 0.00 | 0.00 | 53 | 1016.0 |
| 20260507020325 | 47 | 360 | 0.0 | 0.0 | 0.00 | 0.00 | 0.00 | 52 | 1015.9 |
| 20260507015823 | 48 | 360 | 0.0 | 0.0 | 0.00 | 0.00 | 0.00 | 51 | 1015.9 |
| 20260507015333 | 49 | 360 | 0.0 | 0.0 | 0.00 | 0.00 | 0.00 | 53 | 1015.8 |
| 20260507014818 | 49 | 360 | 0.0 | 0.0 | 0.00 | 0.00 | 0.00 | 56 | 1015.8 |
| 20260507014326 | 49 | 360 | 0.0 | 0.0 | 0.00 | 0.00 | 0.00 | 53 | 1015.7 |
| 20260507013832 | 50 | 360 | 0.0 | 0.0 | 0.00 | 0.00 | 0.00 | 53 | 1015.6 |
| 20260507013319 | 50 | 360 | 0.0 | 0.0 | 0.00 | 0.00 | 0.00 | 51 | 1015.6 |
| 20260507012824 | 51 | 360 | 0.0 | 1.0 | 0.00 | 0.00 | 0.00 | 43 | 1015.6 |
| 20260507012331 | 51 | 360 | 0.0 | 1.0 | 0.00 | 0.00 | 0.00 | 44 | 1015.6 |
| 20260507011834 | 51 | 360 | 0.0 | 1.0 | 0.00 | 0.00 | 0.00 | 42 | 1015.5 |
| 20260507011317 | 52 | 360 | 0.0 | 1.0 | 0.00 | 0.00 | 0.00 | 41 | 1015.4 |
| 20260507010822 | 52 | 360 | 0.0 | 1.0 | 0.00 | 0.00 | 0.00 | 41 | 1015.5 |
| 20260507010324 | 52 | 360 | 0.0 | 2.0 | 0.00 | 0.00 | 0.00 | 41 | 1015.5 |
| 20260507005827 | 52 | 360 | 1.0 | 2.0 | 0.00 | 0.00 | 0.00 | 40 | 1015.4 |
| 20260507005329 | 52 | 360 | 0.0 | 1.0 | 0.00 | 0.00 | 0.00 | 40 | 1015.3 |
| 20260507004832 | 53 | 360 | 0.0 | 6.0 | 0.00 | 0.00 | 0.00 | 39 | 1015.3 |
| 20260507004331 | 53 | 360 | 1.0 | 8.0 | 0.00 | 0.00 | 0.00 | 40 | 1015.3 |
| 20260507003835 | 53 | 360 | 1.0 | 8.0 | 0.00 | 0.00 | 0.00 | 38 | 1015.3 |
| 20260507003356 | 53 | 360 | 0.0 | 4.0 | 0.00 | 0.00 | 0.00 | 39 | 1015.3 |
| 20260507002857 | 53 | 309 | 1.0 | 4.0 | 0.00 | 0.00 | 0.00 | 38 | 1015.3 |
| 20260507002317 | 54 | 307 | 1.0 | 3.0 | 0.00 | 0.00 | 0.00 | 40 | 1015.3 |
| 20260507001824 | 54 | 275 | 0.0 | 4.0 | 0.00 | 0.00 | 0.00 | 39 | 1015.3 |
| 20260507001329 | 54 | 309 | 1.0 | 4.0 | 0.00 | 0.00 | 0.00 | 36 | 1015.4 |
| 20260507000837 | 54 | 341 | 0.0 | 4.0 | 0.00 | 0.00 | 0.00 | 37 | 1015.4 |
| 20260507000323 | 54 | 330 | 1.0 | 4.0 | 0.00 | 0.00 | 0.00 | 37 | 1015.4 |
| 20260506235830 | 54 | 298 | 0.0 | 4.0 | 0.00 | 0.00 | 0.00 | 38 | 1015.3 |
| 20260506235317 | 54 | 333 | 1.0 | 7.0 | 0.00 | 0.00 | 0.00 | 36 | 1015.5 |
| 20260506234822 | 54 | 313 | 1.0 | 7.0 | 0.00 | 0.00 | 0.00 | 36 | 1015.4 |
| 20260506234328 | 54 | 284 | 1.0 | 4.0 | 0.00 | 0.00 | 0.00 | 36 | 1015.4 |
| 20260506233831 | 55 | 355 | 1.0 | 4.0 | 0.00 | 0.00 | 0.00 | 35 | 1015.3 |
| 20260506233317 | 54 | 312 | 1.0 | 6.0 | 0.00 | 0.00 | 0.00 | 34 | 1015.5 |
| 20260506232825 | 54 | 240 | 1.0 | 6.0 | 0.00 | 0.00 | 0.00 | 36 | 1015.6 |
| 20260506232330 | 54 | 309 | 2.0 | 7.0 | 0.00 | 0.00 | 0.00 | 35 | 1015.5 |
| 20260506231834 | 55 | 313 | 3.0 | 7.0 | 0.00 | 0.00 | 0.00 | 34 | 1015.6 |
| 20260506231336 | 55 | 291 | 3.0 | 12.0 | 0.00 | 0.00 | 0.00 | 34 | 1015.4 |
| 20260506230833 | 55 | 240 | 2.0 | 6.0 | 0.00 | 0.00 | 0.00 | 36 | 1015.5 |
| 20260506230334 | 55 | 272 | 2.0 | 6.0 | 0.00 | 0.00 | 0.00 | 35 | 1015.5 |
| 20260506225838 | 55 | 259 | 3.0 | 8.0 | 0.00 | 0.00 | 0.00 | 36 | 1015.5 |
| 20260506225318 | 55 | 242 | 2.0 | 8.0 | 0.00 | 0.00 | 0.00 | 36 | 1015.5 |
| 20260506224822 | 55 | 216 | 3.0 | 7.0 | 0.00 | 0.00 | 0.00 | 35 | 1015.6 |
| 20260506224347 | 56 | 303 | 3.0 | 6.0 | 0.00 | 0.00 | 0.00 | 35 | 1015.5 |
| 20260506223829 | 55 | 223 | 2.0 | 7.0 | 0.00 | 0.00 | 0.00 | 36 | 1015.6 |
| 20260506223331 | 56 | 344 | 3.0 | 6.0 | 0.00 | 0.00 | 0.00 | 36 | 1015.6 |
| 20260506222831 | 56 | 28 | 2.0 | 6.0 | 0.00 | 0.00 | 0.00 | 36 | 1015.6 |
| 20260506222335 | 56 | 282 | 3.0 | 6.0 | 0.00 | 0.00 | 0.00 | 36 | 1015.6 |
| 20260506221817 | 55 | 307 | 2.0 | 7.0 | 0.00 | 0.00 | 0.00 | 36 | 1015.7 |
| 20260506221317 | 55 | 323 | 2.0 | 7.0 | 0.00 | 0.00 | 0.00 | 36 | 1015.6 |
| 20260506220822 | 55 | 216 | 2.0 | 5.0 | 0.00 | 0.00 | 0.00 | 38 | 1015.6 |
| 20260506220325 | 55 | 329 | 2.0 | 5.0 | 0.00 | 0.00 | 0.00 | 37 | 1015.5 |
| 20260506215850 | 55 | 250 | 1.0 | 5.0 | 0.00 | 0.00 | 0.00 | 37 | 1015.7 |
| 20260506215332 | 55 | 294 | 1.0 | 4.0 | 0.00 | 0.00 | 0.00 | 38 | 1015.7 |
| 20260506214836 | 54 | 350 | 1.0 | 6.0 | 0.00 | 0.00 | 0.00 | 40 | 1015.5 |
| 20260506214318 | 54 | 309 | 2.0 | 6.0 | 0.00 | 0.00 | 0.00 | 38 | 1015.6 |
| 20260506213842 | 54 | 311 | 3.0 | 9.0 | 0.00 | 0.00 | 0.00 | 36 | 1015.7 |
| 20260506213324 | 55 | 297 | 2.0 | 9.0 | 0.00 | 0.00 | 0.00 | 37 | 1015.6 |
| 20260506212842 | 55 | 259 | 3.0 | 5.0 | 0.00 | 0.00 | 0.00 | 37 | 1015.6 |
| 20260506212324 | 55 | 333 | 2.0 | 9.0 | 0.00 | 0.00 | 0.00 | 36 | 1015.7 |
| 20260506211828 | 55 | 296 | 3.0 | 6.0 | 0.00 | 0.00 | 0.00 | 38 | 1015.6 |
| 20260506211332 | 55 | 284 | 1.0 | 6.0 | 0.00 | 0.00 | 0.00 | 38 | 1015.8 |
| 20260506210835 | 55 | 302 | 3.0 | 6.0 | 0.00 | 0.00 | 0.00 | 38 | 1015.5 |
| 20260506210319 | 55 | 313 | 1.0 | 6.0 | 0.00 | 0.00 | 0.00 | 38 | 1015.6 |
| 20260506205823 | 55 | 274 | 1.0 | 6.0 | 0.00 | 0.00 | 0.00 | 38 | 1015.7 |
| 20260506205325 | 56 | 334 | 2.0 | 7.0 | 0.00 | 0.00 | 0.00 | 38 | 1015.8 |
| 20260506204849 | 56 | 296 | 2.0 | 9.0 | 0.00 | 0.00 | 0.00 | 36 | 1015.8 |
| 20260506204331 | 56 | 298 | 3.0 | 9.0 | 0.00 | 0.00 | 0.00 | 38 | 1015.8 |
| 20260506203834 | 55 | 232 | 1.0 | 11.0 | 0.00 | 0.00 | 0.00 | 38 | 1015.8 |
| 20260506203355 | 55 | 227 | 2.0 | 11.0 | 0.00 | 0.00 | 0.00 | 41 | 1016.0 |
| 20260506202851 | 56 | 323 | 3.0 | 11.0 | 0.00 | 0.00 | 0.00 | 36 | 1015.9 |
| 20260506202334 | 55 | 344 | 3.0 | 6.0 | 0.00 | 0.00 | 0.00 | 37 | 1016.0 |
| 20260506201817 | 55 | 13 | 3.0 | 6.0 | 0.00 | 0.00 | 0.00 | 36 | 1015.9 |
| 20260506201320 | 56 | 310 | 2.0 | 6.0 | 0.00 | 0.00 | 0.00 | 39 | 1015.9 |
| 20260506200825 | 56 | 307 | 2.0 | 6.0 | 0.00 | 0.00 | 0.00 | 39 | 1016.0 |
| 20260506200328 | 56 | 326 | 2.0 | 6.0 | 0.00 | 0.00 | 0.00 | 35 | 1016.0 |
| 20260506195831 | 57 | 223 | 2.0 | 6.0 | 0.00 | 0.00 | 0.00 | 35 | 1016.0 |
| 20260506195335 | 57 | 312 | 2.0 | 7.0 | 0.00 | 0.00 | 0.00 | 39 | 1015.7 |
| 20260506194838 | 56 | 207 | 1.0 | 7.0 | 0.00 | 0.00 | 0.00 | 39 | 1015.8 |
| 20260506194320 | 56 | 298 | 1.0 | 7.0 | 0.00 | 0.00 | 0.00 | 37 | 1015.9 |
| 20260506193824 | 56 | 265 | 2.0 | 8.0 | 0.00 | 0.00 | 0.00 | 34 | 1015.8 |
| 20260506193323 | 57 | 334 | 4.0 | 8.0 | 0.00 | 0.00 | 0.00 | 35 | 1015.9 |
| 20260506192840 | 57 | 348 | 3.0 | 8.0 | 0.00 | 0.00 | 0.00 | 37 | 1015.8 |
| 20260506192323 | 56 | 318 | 3.0 | 7.0 | 0.00 | 0.00 | 0.00 | 37 | 1015.9 |
| 20260506191827 | 55 | 211 | 3.0 | 7.0 | 0.00 | 0.00 | 0.00 | 39 | 1015.8 |
| 20260506191352 | 55 | 296 | 1.0 | 8.0 | 0.00 | 0.00 | 0.00 | 38 | 1015.8 |
| 20260506190835 | 56 | 355 | 2.0 | 7.0 | 0.00 | 0.00 | 0.00 | 37 | 1015.9 |
| 20260506190341 | 56 | 248 | 3.0 | 7.0 | 0.00 | 0.00 | 0.00 | 37 | 1015.9 |
| 20260506185824 | 56 | 298 | 2.0 | 8.0 | 0.00 | 0.00 | 0.00 | 36 | 1015.9 |
| 20260506185328 | 56 | 216 | 2.0 | 7.0 | 0.00 | 0.00 | 0.00 | 39 | 1015.9 |
| 20260506184830 | 56 | 346 | 1.0 | 3.0 | 0.00 | 0.00 | 0.00 | 37 | 1015.9 |
| 20260506184333 | 56 | 286 | 1.0 | 8.0 | 0.00 | 0.00 | 0.00 | 39 | 1015.9 |
| 20260506183837 | 56 | 311 | 2.0 | 8.0 | 0.00 | 0.00 | 0.00 | 36 | 1015.9 |
| 20260506183317 | 57 | 217 | 2.0 | 7.0 | 0.00 | 0.00 | 0.00 | 37 | 1015.9 |
| 20260506182839 | 56 | 333 | 2.0 | 9.0 | 0.00 | 0.00 | 0.00 | 40 | 1015.9 |
| 20260506182344 | 56 | 333 | 4.0 | 9.0 | 0.00 | 0.00 | 0.00 | 37 | 1016.0 |
| 20260506181825 | 56 | 230 | 2.0 | 9.0 | 0.00 | 0.00 | 0.00 | 42 | 1015.9 |
| 20260506181329 | 55 | 250 | 3.0 | 7.0 | 0.00 | 0.00 | 0.00 | 41 | 1015.9 |
| 20260506180833 | 55 | 259 | 1.0 | 12.0 | 0.00 | 0.00 | 0.00 | 40 | 1016.1 |
| 20260506180336 | 55 | 292 | 3.0 | 12.0 | 0.00 | 0.00 | 0.00 | 40 | 1015.9 |
| 20260506175818 | 54 | 338 | 3.0 | 11.0 | 0.00 | 0.00 | 0.00 | 38 | 1016.0 |
| 20260506175323 | 54 | 308 | 2.0 | 9.0 | 0.00 | 0.00 | 0.00 | 39 | 1016.0 |
| 20260506174825 | 55 | 360 | 3.0 | 10.0 | 0.00 | 0.00 | 0.00 | 35 | 1016.1 |
| 20260506174328 | 56 | 360 | 3.0 | 8.0 | 0.00 | 0.00 | 0.00 | 36 | 1016.0 |
| 20260506173831 | 56 | 360 | 2.0 | 8.0 | 0.00 | 0.00 | 0.00 | 38 | 1016.0 |
| 20260506173333 | 56 | 360 | 2.0 | 8.0 | 0.00 | 0.00 | 0.00 | 38 | 1016.1 |
| 20260506172835 | 55 | 360 | 3.0 | 5.0 | 0.00 | 0.00 | 0.00 | 38 | 1016.1 |
| 20260506172318 | 55 | 360 | 2.0 | 6.0 | 0.00 | 0.00 | 0.00 | 36 | 1016.2 |
| 20260506171818 | 55 | 360 | 2.0 | 7.0 | 0.00 | 0.00 | 0.00 | 42 | 1016.1 |
| 20260506171340 | 55 | 360 | 3.0 | 7.0 | 0.00 | 0.00 | 0.00 | 37 | 1016.0 |
| 20260506170823 | 54 | 17 | 2.0 | 7.0 | 0.00 | 0.00 | 0.00 | 38 | 1016.0 |
| 20260506170328 | 54 | 360 | 3.0 | 7.0 | 0.00 | 0.00 | 0.00 | 40 | 1016.2 |